createdAt,value
2022-11-24T00:01:20.891Z,5.88
2022-11-24T00:05:25.104Z,5.78
2022-11-24T00:09:28.365Z,5.65
2022-11-24T00:13:34.683Z,5.49
2022-11-24T00:17:37.814Z,5.36
2022-11-24T00:21:41.430Z,5.27
2022-11-24T00:25:45.245Z,5.23
2022-11-24T00:29:50.156Z,5.24
2022-11-24T00:33:55.879Z,5.27
2022-11-24T00:37:59.095Z,5.31
2022-11-24T00:42:02.899Z,5.36
2022-11-24T00:46:10.378Z,5.41
2022-11-24T00:50:14.211Z,5.43
2022-11-24T00:54:17.944Z,5.50
2022-11-24T00:58:24.034Z,5.54
2022-11-24T01:02:29.111Z,5.56
2022-11-24T01:06:35.801Z,5.59
2022-11-24T01:10:40.117Z,5.58
2022-11-24T01:14:43.652Z,5.67
2022-11-24T01:18:48.921Z,5.73
2022-11-24T01:22:52.725Z,5.78
2022-11-24T01:26:56.214Z,5.82
2022-11-24T01:31:00.771Z,5.87
2022-11-24T01:35:06.870Z,5.92
2022-11-24T01:39:10.450Z,5.95
2022-11-24T01:43:19.827Z,5.94
2022-11-24T01:47:34.764Z,5.90
2022-11-24T01:51:44.779Z,5.86
2022-11-24T01:55:48.424Z,5.94
2022-11-24T01:59:55.859Z,6.00
2022-11-24T02:04:00.272Z,6.06
2022-11-24T02:08:07.823Z,6.19
2022-11-24T02:12:11.727Z,6.32
2022-11-24T02:16:15.559Z,6.46
2022-11-24T02:20:19.576Z,6.59
2022-11-24T02:24:32.722Z,6.71
2022-11-24T02:28:37.894Z,6.79
2022-11-24T02:32:43.588Z,6.87
2022-11-24T02:36:47.389Z,6.93
2022-11-24T02:40:51.522Z,6.97
2022-11-24T02:44:59.148Z,7.01
2022-11-24T02:49:02.855Z,7.04
2022-11-24T02:53:06.648Z,7.06
2022-11-24T02:57:10.037Z,7.08
2022-11-24T03:01:15.075Z,7.02
2022-11-24T03:05:18.510Z,7.04
2022-11-24T03:09:22.081Z,7.16
2022-11-24T03:13:25.525Z,7.13
2022-11-24T03:17:30.196Z,7.14
2022-11-24T03:21:34.177Z,7.24
2022-11-24T03:25:37.904Z,7.27
2022-11-24T03:29:41.486Z,7.31
2022-11-24T03:33:46.071Z,7.33
2022-11-24T03:37:50.081Z,7.36
2022-11-24T03:41:53.669Z,7.38
2022-11-24T03:45:57.349Z,7.42
2022-11-24T03:50:02.488Z,7.47
2022-11-24T03:54:07.343Z,7.49
2022-11-24T03:58:10.417Z,7.52
2022-11-24T04:02:14.157Z,7.53
2022-11-24T04:06:19.090Z,7.62
2022-11-24T04:10:22.739Z,7.58
2022-11-24T04:14:26.513Z,7.69
2022-11-24T04:18:29.716Z,7.72
2022-11-24T04:22:34.950Z,7.75
2022-11-24T04:26:38.539Z,7.77
2022-11-24T04:30:45.148Z,7.79
2022-11-24T04:34:49.086Z,7.79
2022-11-24T04:39:25.005Z,7.77
2022-11-24T04:43:20.619Z,7.80
2022-11-24T04:47:26.005Z,7.79
2022-11-24T04:51:29.774Z,7.78
2022-11-24T04:55:34.671Z,7.77
2022-11-24T04:59:38.413Z,7.71
2022-11-24T05:03:42.010Z,7.72
2022-11-24T05:07:45.221Z,7.71
2022-11-24T05:11:50.147Z,7.71
2022-11-24T05:15:53.621Z,7.71
2022-11-24T05:19:56.707Z,7.72
2022-11-24T05:24:00.260Z,7.71
2022-11-24T05:28:09.341Z,7.75
2022-11-24T05:32:12.851Z,7.76
2022-11-24T05:36:30.154Z,7.78
2022-11-24T05:40:33.243Z,7.78
2022-11-24T05:44:38.278Z,7.80
2022-11-24T05:48:41.794Z,7.80
2022-11-24T05:52:45.923Z,7.68
2022-11-24T05:56:49.046Z,7.81
2022-11-24T06:00:54.218Z,7.80
2022-11-24T06:04:57.773Z,7.79
2022-11-24T06:09:01.218Z,7.78
2022-11-24T06:13:07.463Z,7.80
2022-11-24T06:17:14.384Z,7.80
2022-11-24T06:21:17.919Z,7.82
2022-11-24T06:25:20.985Z,7.87
2022-11-24T06:29:23.997Z,7.94
2022-11-24T06:33:29.144Z,8.06
2022-11-24T06:37:32.715Z,8.18
2022-11-24T06:41:36.143Z,8.18
2022-11-24T06:45:39.742Z,8.38
2022-11-24T06:49:45.688Z,8.48
2022-11-24T06:53:49.281Z,8.55
2022-11-24T06:57:52.764Z,8.65
2022-11-24T07:01:55.840Z,8.72
2022-11-24T07:06:01.197Z,8.77
2022-11-24T07:10:04.884Z,8.79
2022-11-24T07:14:09.826Z,8.79
2022-11-24T07:18:12.886Z,8.77
2022-11-24T07:22:17.672Z,8.77
2022-11-24T07:26:22.046Z,8.73
2022-11-24T07:30:25.963Z,8.77
2022-11-24T07:34:29.511Z,8.85
2022-11-24T07:38:34.855Z,9.02
2022-11-24T07:42:38.420Z,9.23
2022-11-24T07:46:41.915Z,9.40
2022-11-24T07:50:45.760Z,9.51
2022-11-24T07:54:51.615Z,9.58
2022-11-24T07:58:55.249Z,9.62
2022-11-24T08:02:58.790Z,9.63
2022-11-24T08:07:03.568Z,9.63
2022-11-24T08:11:11.573Z,9.65
2022-11-24T08:15:15.241Z,9.67
2022-11-24T08:19:18.248Z,9.72
2022-11-24T08:23:21.752Z,9.77
2022-11-24T08:27:26.959Z,9.85
2022-11-24T08:31:34.379Z,9.90
2022-11-24T08:35:38.598Z,9.96
2022-11-24T08:39:42.209Z,10.02
2022-11-24T08:43:47.252Z,10.09
2022-11-24T08:47:54.515Z,10.17
2022-11-24T08:51:59.215Z,10.24
2022-11-24T08:56:02.789Z,10.34
2022-11-24T09:00:08.806Z,10.45
2022-11-24T09:04:12.461Z,10.54
2022-11-24T09:08:16.038Z,10.64
2022-11-24T09:12:19.288Z,10.72
2022-11-24T09:16:26.105Z,10.82
2022-11-24T09:24:49.821Z,11.01
2022-11-24T09:28:55.741Z,11.12
2022-11-24T09:33:01.073Z,11.27
2022-11-24T09:37:04.415Z,11.39
2022-11-24T09:41:43.278Z,11.54
2022-11-24T09:46:08.084Z,11.71
2022-11-24T09:50:19.387Z,11.87
2022-11-24T09:54:25.653Z,12.04
2022-11-24T09:58:48.450Z,12.21
2022-11-24T10:02:51.781Z,12.33
2022-11-24T10:07:07.056Z,12.46
2022-11-24T10:11:15.421Z,12.53
2022-11-24T10:15:31.617Z,12.56
2022-11-24T10:19:47.199Z,12.56
2022-11-24T10:24:09.008Z,12.55
2022-11-24T10:28:15.995Z,12.54
2022-11-24T10:32:21.311Z,12.54
2022-11-24T10:36:33.455Z,12.58
2022-11-24T10:40:58.052Z,12.59
2022-11-24T10:45:03.204Z,12.54
2022-11-24T10:49:08.017Z,12.48
2022-11-24T10:53:20.429Z,12.44
2022-11-24T10:57:35.908Z,12.44
2022-11-24T11:01:39.141Z,12.44
2022-11-24T11:05:46.430Z,12.50
2022-11-24T11:09:51.106Z,12.58
2022-11-24T11:14:03.898Z,12.71
2022-11-24T11:18:08.219Z,12.83
2022-11-24T11:22:22.075Z,13.00
2022-11-24T11:26:36.150Z,13.13
2022-11-24T11:35:04.518Z,13.35
2022-11-24T11:39:08.799Z,13.43
2022-11-24T11:43:24.347Z,13.51
2022-11-24T11:47:35.887Z,13.62
2022-11-24T11:56:27.658Z,13.87
2022-11-24T12:00:36.883Z,14.03
2022-11-24T12:04:54.384Z,14.18
2022-11-24T12:09:23.465Z,14.27
2022-11-24T12:13:43.501Z,14.27
2022-11-24T12:17:55.208Z,14.23
2022-11-24T12:22:09.200Z,14.17
2022-11-24T12:26:20.430Z,14.07
2022-11-24T12:30:24.167Z,13.91
2022-11-24T12:34:40.004Z,13.72
2022-11-24T12:38:56.110Z,13.49
2022-11-24T12:43:09.873Z,13.30
2022-11-24T12:47:20.985Z,13.09
2022-11-24T12:51:43.640Z,12.95
2022-11-24T12:55:52.850Z,12.56
2022-11-24T13:00:05.867Z,12.72
2022-11-24T13:04:22.901Z,12.26
2022-11-24T13:08:28.488Z,12.48
2022-11-24T13:12:33.397Z,12.50
2022-11-24T13:21:55.778Z,12.19
2022-11-24T13:26:17.369Z,12.25
2022-11-24T13:31:05.973Z,12.50
2022-11-24T13:35:17.350Z,12.36
2022-11-24T13:39:23.049Z,12.38
2022-11-24T13:43:29.836Z,12.43
2022-11-24T13:47:39.259Z,12.54
2022-11-24T13:51:44.124Z,12.53
2022-11-24T13:55:58.942Z,12.51
2022-11-24T14:00:03.161Z,12.44
2022-11-24T14:04:30.142Z,12.37
2022-11-24T14:08:40.221Z,12.28
2022-11-24T14:12:44.202Z,12.13
2022-11-24T14:16:47.337Z,12.11
2022-11-24T14:20:50.555Z,12.03
2022-11-24T14:24:57.852Z,11.95
2022-11-24T14:29:07.661Z,11.88
2022-11-24T14:33:13.294Z,11.82
2022-11-24T14:37:16.340Z,11.71
2022-11-24T14:41:26.854Z,11.64
2022-11-24T14:45:29.934Z,11.51
2022-11-24T14:49:35.130Z,11.41
2022-11-24T14:53:42.377Z,11.28
2022-11-24T14:57:47.388Z,11.06
2022-11-24T15:01:51.000Z,11.02
2022-11-24T15:05:56.908Z,10.94
2022-11-24T15:10:05.991Z,10.82
2022-11-24T15:14:33.440Z,10.77
2022-11-24T15:18:44.146Z,10.74
2022-11-24T15:22:47.652Z,10.69
2022-11-24T15:26:50.763Z,10.67
2022-11-24T15:30:56.904Z,10.68
2022-11-24T15:35:00.282Z,10.59
2022-11-24T15:39:03.715Z,10.65
2022-11-24T15:43:18.668Z,10.64
2022-11-24T15:47:23.680Z,10.61
2022-11-24T15:51:28.446Z,10.61
2022-11-24T15:55:31.884Z,10.56
2022-11-24T15:59:36.025Z,10.53
2022-11-24T16:03:48.858Z,10.51
2022-11-24T16:07:52.772Z,10.50
2022-11-24T16:11:55.874Z,10.45
2022-11-24T16:15:59.418Z,10.42
2022-11-24T16:20:04.443Z,10.37
2022-11-24T16:24:08.797Z,10.26
2022-11-24T16:28:12.322Z,10.31
2022-11-24T16:32:15.492Z,10.25
2022-11-24T16:36:20.076Z,10.20
2022-11-24T16:40:23.702Z,10.14
2022-11-24T16:44:27.221Z,10.11
2022-11-24T16:48:30.586Z,10.10
2022-11-24T16:52:35.273Z,10.05
2022-11-24T16:56:38.826Z,10.01
2022-11-24T17:00:42.363Z,9.96
2022-11-24T17:04:46.051Z,9.87
2022-11-24T17:08:50.838Z,9.87
2022-11-24T17:12:53.938Z,9.79
2022-11-24T17:16:57.251Z,9.78
2022-11-24T17:21:05.996Z,9.77
2022-11-24T17:25:14.141Z,9.79
2022-11-24T17:29:17.705Z,9.79
2022-11-24T17:33:20.752Z,9.81
2022-11-24T17:37:24.725Z,9.81
2022-11-24T17:41:29.704Z,9.83
2022-11-24T17:45:33.517Z,9.85
2022-11-24T17:49:37.294Z,9.81
2022-11-24T17:53:42.198Z,9.85
2022-11-24T17:57:47.249Z,9.84
2022-11-24T18:01:50.506Z,9.80
2022-11-24T18:05:53.923Z,9.67
2022-11-24T18:09:58.023Z,9.57
2022-11-24T18:14:05.338Z,9.47
2022-11-24T18:18:09.019Z,9.34
2022-11-24T18:22:12.774Z,9.22
2022-11-24T18:26:18.606Z,9.10
2022-11-24T18:30:23.312Z,9.04
2022-11-24T18:34:26.891Z,8.89
2022-11-24T18:38:31.294Z,8.91
2022-11-24T18:42:34.394Z,8.81
2022-11-24T18:46:40.138Z,8.87
2022-11-24T18:50:43.279Z,8.88
2022-11-24T18:54:46.903Z,8.89
2022-11-24T18:58:54.425Z,8.95
2022-11-24T19:03:00.920Z,8.98
2022-11-24T19:07:04.437Z,8.99
2022-11-24T19:11:07.722Z,9.01
2022-11-24T19:15:11.948Z,8.98
2022-11-24T19:19:17.706Z,8.93
2022-11-24T19:23:21.240Z,8.85
2022-11-24T19:27:24.896Z,8.77
2022-11-24T19:31:28.262Z,8.71
2022-11-24T19:35:33.483Z,8.71
2022-11-24T19:39:36.711Z,8.71
2022-11-24T19:43:40.809Z,8.77
2022-11-24T19:47:44.116Z,8.82
2022-11-24T19:51:50.121Z,8.87
2022-11-24T19:55:53.586Z,8.92
2022-11-24T19:59:57.709Z,8.93
2022-11-24T20:04:02.754Z,8.91
2022-11-24T20:08:08.171Z,8.92
2022-11-24T20:12:11.816Z,8.91
2022-11-24T20:16:17.304Z,8.92
2022-11-24T20:20:21.893Z,8.91
2022-11-24T20:24:27.015Z,8.94
2022-11-24T20:28:30.534Z,8.94
2022-11-24T20:32:34.359Z,8.91
2022-11-24T20:36:40.877Z,8.89
2022-11-24T20:40:45.570Z,8.85
2022-11-24T20:44:48.715Z,8.86
2022-11-24T20:48:52.985Z,8.90
2022-11-24T20:52:56.740Z,8.95
2022-11-24T20:57:01.479Z,8.97
2022-11-24T21:01:06.733Z,8.97
2022-11-24T21:05:10.890Z,8.92
2022-11-24T21:09:14.130Z,8.91
2022-11-24T21:13:19.631Z,8.88
2022-11-24T21:17:23.181Z,8.85
2022-11-24T21:21:33.429Z,8.86
2022-11-24T21:25:36.744Z,8.92
2022-11-24T21:29:41.442Z,8.89
2022-11-24T21:33:46.795Z,8.84
2022-11-24T21:37:50.213Z,8.79
2022-11-24T21:41:53.353Z,8.75
2022-11-24T21:46:02.473Z,8.68
2022-11-24T21:50:06.910Z,8.63
2022-11-24T21:54:10.982Z,8.55
2022-11-24T21:58:14.897Z,8.47
2022-11-24T22:02:19.867Z,8.35
2022-11-24T22:06:23.933Z,8.21
2022-11-24T22:10:26.970Z,8.08
2022-11-24T22:14:30.468Z,7.93
2022-11-24T22:18:37.099Z,7.77
2022-11-24T22:22:40.568Z,7.62
2022-11-24T22:26:43.618Z,7.46
2022-11-24T22:30:47.002Z,7.33
2022-11-24T22:34:51.493Z,7.23
2022-11-24T22:38:55.764Z,7.14
2022-11-24T22:42:59.885Z,7.09
2022-11-24T22:47:03.301Z,7.07
2022-11-24T22:51:10.239Z,7.08
2022-11-24T22:55:13.750Z,7.07
2022-11-24T22:59:17.289Z,7.07
2022-11-24T23:03:21.723Z,7.05
2022-11-24T23:07:26.277Z,7.02
2022-11-24T23:11:37.690Z,6.97
2022-11-24T23:15:41.339Z,6.89
2022-11-24T23:19:44.813Z,6.83
2022-11-24T23:23:50.815Z,6.74
2022-11-24T23:27:54.694Z,6.63
2022-11-24T23:31:58.117Z,6.55
2022-11-24T23:36:03.115Z,6.48
2022-11-24T23:40:10.120Z,6.40
2022-11-24T23:44:13.464Z,6.31
2022-11-24T23:48:16.988Z,6.27
2022-11-24T23:52:20.011Z,6.29
2022-11-24T23:56:26.196Z,6.38
